createdAt,value
2019-04-16T00:09:56.344Z,11.30
2019-04-16T00:19:58.375Z,11.20
2019-04-16T00:30:04.114Z,11.20
2019-04-16T00:40:04.334Z,11.20
2019-04-16T00:50:06.679Z,11.20
2019-04-16T01:00:09.642Z,11.10
2019-04-16T01:10:11.518Z,10.90
2019-04-16T01:20:13.560Z,10.80
2019-04-16T01:30:15.616Z,10.60
2019-04-16T01:40:18.673Z,10.50
2019-04-16T01:50:21.262Z,10.30
2019-04-16T02:00:23.367Z,10.20
2019-04-16T02:10:25.308Z,10.20
2019-04-16T02:20:27.330Z,10.20
2019-04-16T02:30:29.261Z,10.10
2019-04-16T02:40:31.199Z,10.00
2019-04-16T02:50:33.407Z,9.90
2019-04-16T03:00:35.472Z,9.80
2019-04-16T03:10:37.386Z,9.70
2019-04-16T03:20:39.446Z,9.60
2019-04-16T03:30:42.858Z,9.60
2019-04-16T03:40:45.012Z,9.60
2019-04-16T03:50:47.014Z,9.40
2019-04-16T04:00:49.113Z,9.40
2019-04-16T04:10:51.201Z,9.20
2019-04-16T04:20:53.243Z,9.10
2019-04-16T04:30:57.764Z,9.10
2019-04-16T04:40:59.860Z,9.00
2019-04-16T04:51:06.973Z,8.90
2019-04-16T05:01:05.868Z,9.00
2019-04-16T05:11:07.938Z,9.00
2019-04-16T05:21:09.919Z,9.00
2019-04-16T05:31:12.236Z,9.10
2019-04-16T05:41:20.540Z,9.20
2019-04-16T05:51:18.062Z,9.30
2019-04-16T06:01:20.062Z,9.50
2019-04-16T06:11:29.011Z,9.60
2019-04-16T06:21:26.811Z,9.60
2019-04-16T06:31:29.013Z,9.80
2019-04-16T06:41:41.547Z,9.90
2019-04-16T06:51:34.739Z,10.20
2019-04-16T07:01:38.677Z,10.60
2019-04-16T07:11:53.406Z,11.00
2019-04-16T07:21:48.717Z,11.20
2019-04-16T07:31:51.754Z,11.50
2019-04-16T07:41:51.995Z,11.70
2019-04-16T07:51:53.955Z,12.00
2019-04-16T08:01:56.061Z,12.40
2019-04-16T08:11:58.008Z,12.70
2019-04-16T08:22:00.173Z,13.20
2019-04-16T08:32:02.203Z,13.60
2019-04-16T08:42:04.291Z,14.00
2019-04-16T08:52:09.968Z,14.20
2019-04-16T09:02:10.141Z,14.60
2019-04-16T09:12:12.087Z,15.20
2019-04-16T09:22:16.847Z,15.60
2019-04-16T09:32:17.849Z,15.80
2019-04-16T09:42:19.781Z,16.20
2019-04-16T09:52:22.956Z,16.60
2019-04-16T10:02:25.560Z,17.00
2019-04-16T10:12:28.720Z,17.30
2019-04-16T10:22:30.739Z,17.70
2019-04-16T10:32:32.713Z,17.80
2019-04-16T10:42:34.736Z,18.30
2019-04-16T10:52:36.676Z,18.40
2019-04-16T11:02:38.614Z,19.10
2019-04-16T11:12:40.587Z,19.60
2019-04-16T11:22:42.669Z,19.90
2019-04-16T11:32:44.682Z,20.30
2019-04-16T11:42:46.675Z,20.80
2019-04-16T11:52:48.727Z,21.50
2019-04-16T12:02:50.778Z,34.70
2019-04-16T12:12:52.713Z,40.40
2019-04-16T12:22:54.694Z,45.70
2019-04-16T12:32:56.826Z,46.40
2019-04-16T12:42:58.827Z,45.70
2019-04-16T12:53:00.734Z,47.50
2019-04-16T13:03:02.933Z,50.20
2019-04-16T13:13:04.923Z,50.60
2019-04-16T13:23:07.091Z,51.80
2019-04-16T13:33:10.344Z,52.00
2019-04-16T13:43:12.721Z,48.20
2019-04-16T13:53:14.841Z,46.80
2019-04-16T14:03:16.837Z,48.20
2019-04-16T14:13:18.892Z,46.90
2019-04-16T14:23:20.799Z,40.40
2019-04-16T14:33:22.867Z,38.20
2019-04-16T14:43:29.170Z,43.40
2019-04-16T14:53:28.660Z,46.40
2019-04-16T15:03:30.608Z,46.70
2019-04-16T15:13:32.583Z,43.00
2019-04-16T15:23:34.539Z,37.90
2019-04-16T15:33:38.979Z,33.80
2019-04-16T15:43:40.439Z,30.30
2019-04-16T15:53:42.394Z,28.10
2019-04-16T16:03:44.348Z,27.20
2019-04-16T16:13:46.722Z,26.30
2019-04-16T16:23:48.674Z,25.00
2019-04-16T16:33:50.692Z,23.60
2019-04-16T16:43:52.678Z,23.30
2019-04-16T16:53:54.645Z,23.10
2019-04-16T17:03:56.020Z,22.40
2019-04-16T17:14:01.332Z,21.50
2019-04-16T17:24:10.183Z,20.70
2019-04-16T17:34:12.199Z,20.00
2019-04-16T17:44:15.599Z,19.50
2019-04-16T17:54:17.582Z,19.10
2019-04-16T18:04:19.616Z,18.80
2019-04-16T18:14:21.567Z,18.30
2019-04-16T18:24:23.551Z,17.90
2019-04-16T18:34:25.568Z,17.60
2019-04-16T18:44:29.308Z,17.30
2019-04-16T18:54:31.360Z,17.10
2019-04-16T19:04:33.454Z,17.00
2019-04-16T19:14:36.690Z,16.90
2019-04-16T19:24:38.937Z,16.80
2019-04-16T19:34:41.809Z,16.60
2019-04-16T19:44:43.997Z,16.50
2019-04-16T19:54:45.977Z,16.30
2019-04-16T20:04:50.736Z,16.00
2019-04-16T20:14:51.908Z,15.80
2019-04-16T20:24:54.021Z,15.60
2019-04-16T20:34:56.118Z,15.60
2019-04-16T20:44:58.115Z,15.40
2019-04-16T20:55:01.977Z,15.30
2019-04-16T21:05:05.028Z,15.20
2019-04-16T21:15:07.192Z,15.20
2019-04-16T21:25:12.304Z,15.00
2019-04-16T21:35:13.399Z,14.90
2019-04-16T21:45:16.455Z,14.70
2019-04-16T21:55:19.128Z,14.70
2019-04-16T22:05:21.107Z,14.60
2019-04-16T22:15:25.439Z,14.50
2019-04-16T22:25:27.741Z,14.30
2019-04-16T22:35:31.832Z,14.20
2019-04-16T22:45:33.054Z,14.20
2019-04-16T22:55:35.134Z,14.20
2019-04-16T23:05:37.145Z,14.30
2019-04-16T23:15:39.170Z,14.20
2019-04-16T23:25:41.171Z,14.20
2019-04-16T23:35:44.472Z,14.20
2019-04-16T23:45:46.755Z,14.20
2019-04-16T23:55:49.891Z,14.20
